LiveATC.Net - Listen to live air traffic control over the Internet!


ICAO: CEN4  IATA: CEN4   Airport: High River Airport
City: High River   State/Province: Alberta
Country: Canada   Continent: North America
CYYC METAR Weather: CYYC 202100Z 19007KT 40SM SKC 16/M02 A3008 RMK SLP209 DENSITY ALT 4500FT
CEN4 Flight Activity (FlightAware)
CEN4 Webcam:  (Airport Webcams) 

CEN4 CTAF
Feed Status: UP   Listeners: 0
Listen in your browser - HTML5 player (in browser, HTML5)
Click here to listen with your own player (launches your MP3 player)
CEN4 CTAF Audio Archives
FacilityFrequency
High River CTAF123.000

NOTICE

Unauthorized use prohibited. See LiveATC.net Terms of Service


Find LiveATC Audio Streams


Airport/ARTCC Code

Frequency Search
(e.g., 124.400, 128.75)
Site-wide search
 


Browse LiveATC Feeds
Top 50 LiveATC Feeds
LiveATC Feed Map
Bad Weather Areas

LiveATC FAQ
Offer LiveATC feed
Contact LiveATC.net
Press Inquiries

LiveATC on iPhone
LiveATC on Android

Windows Phone
Windows 8/10

LiveATC Mobile
(Mobile browser)

ATC Audio Archives
Interesting Recordings

LiveATC Forums


Home Page
About LiveATC.net
Make a Donation
Terms of Use
Privacy Policy

Canadian Air Freqs

AIRMETs/SIGMETs

FAA Airport Status
Nat'l Airspace Status
Arrival Demand Charts


Server Software By:
Icecast.org
Liquidsoap